Terminal Aerodrome Forecast
Issued by NWS Buffalo, NY

Home | Current Version | Previous Version | Text Only | Print | Product List | Glossary On
Versions: 1 2 3 4 5 6 7 8 9 10 11 12 13 14 15 16 17 18 19 20 21 22 23 24 25 26 27 28 29
000
FTUS41 KBUF 040500
TAFART
TAF
KART 040520Z 0406/0506 22015G25KT 4SM -FZRA BR OVC015
      TEMPO 0406/0408 2SM -FZRA BR
     FM040800 24015G25KT P6SM VCSH SCT007 OVC015
     FM041200 24015G25KT P6SM SCT015 OVC025
     FM041600 25015G25KT P6SM SCT025 BKN035
     FM042000 26012G22KT P6SM BKN060
     FM042300 26012KT P6SM SCT100 BKN200=

USA.gov is the U.S. government's official web portal to all federal, state and local government web resources and services.